Time;durP1;ratioP1;P1;durP2;ratioP2;P2;SDS_P1;SDS_P2;PMS_P1;PMS_P2;Temp;Humidity;BMP_temperature;BMP_pressure;BME280_temperature;BME280_humidity;BME280_pressure;Samples;Min_cycle;Max_cycle;Signal;HPM_P1;HPM_P2
2022/10/05 00:01:02;;;;;;;2.7;2.1;;;;;;;8.36;96.18652;945.0517;;;;
2022/10/05 00:03:32;;;;;;;4.2;2.1;;;;;;;8.32;96.28027;945.0947;;;;
2022/10/05 00:05:55;;;;;;;3.2;2.1;;;;;;;8.39;95.58105;945.1092;;;;
2022/10/05 00:08:24;;;;;;;3.1;2;;;;;;;8.29;95.73828;945.0748;;;;
2022/10/05 00:10:49;;;;;;;2.8;2.2;;;;;;;8.27;95.98438;945.1022;;;;
2022/10/05 00:13:14;;;;;;;2.8;1.6;;;;;;;8.24;97.14746;945.1028;;;;
2022/10/05 00:15:39;;;;;;;2.6;2;;;;;;;8.23;97.10059;945.0899;;;;
2022/10/05 00:18:05;;;;;;;2.7;1.7;;;;;;;8.43;96.66797;945.0891;;;;
2022/10/05 00:20:30;;;;;;;2.4;2;;;;;;;8.54;95.20313;945.0754;;;;
2022/10/05 00:23:17;;;;;;;2.3;1.5;;;;;;;8.76;94.83105;945.0793;;;;
2022/10/05 00:25:42;;;;;;;2.4;1.9;;;;;;;8.8;93.99902;945.0185;;;;
2022/10/05 00:28:09;;;;;;;3.1;2.2;;;;;;;8.7;94.48926;944.9436;;;;
2022/10/05 00:30:34;;;;;;;4.2;1.9;;;;;;;8.79;93.9043;945.0364;;;;
2022/10/05 00:32:59;;;;;;;3.5;2.2;;;;;;;8.77;93.36816;945.0051;;;;
2022/10/05 00:35:30;;;;;;;3.3;2.3;;;;;;;8.57;93.71094;944.9986;;;;
2022/10/05 00:37:54;;;;;;;6.1;2.3;;;;;;;8.34;94.86426;945.0363;;;;
2022/10/05 00:40:19;;;;;;;2.1;1.7;;;;;;;8.39;95.2168;945.0424;;;;
2022/10/05 00:42:45;;;;;;;4.6;1.7;;;;;;;8.44;94.78418;944.9528;;;;
2022/10/05 00:45:11;;;;;;;2;1.7;;;;;;;8.38;94.5791;944.9493;;;;
2022/10/05 00:47:36;;;;;;;5.5;2.4;;;;;;;8.41;94.3125;944.9167;;;;
2022/10/05 00:51:13;;;;;;;3.2;2.6;;;;;;;8.22;94.72266;944.957;;;;
2022/10/05 00:53:41;;;;;;;3.4;2.2;;;;;;;8.21;95.68848;944.8536;;;;
2022/10/05 00:56:06;;;;;;;2.8;2.1;;;;;;;8.18;95.3623;944.8675;;;;
2022/10/05 00:58:33;;;;;;;3;2;;;;;;;8.13;95.70215;944.8311;;;;
2022/10/05 01:00:59;;;;;;;3.8;2.4;;;;;;;8;95.92578;944.7867;;;;
2022/10/05 01:03:25;;;;;;;2.6;1.8;;;;;;;7.91;96.17773;944.762;;;;
2022/10/05 01:05:50;;;;;;;1.9;1.5;;;;;;;7.91;96.90234;944.7389;;;;
2022/10/05 01:08:15;;;;;;;2;1.6;;;;;;;7.9;96.42383;944.6236;;;;
2022/10/05 01:10:40;;;;;;;3.6;1.9;;;;;;;7.9;96.11914;944.6625;;;;
2022/10/05 01:13:05;;;;;;;2.6;1.8;;;;;;;8.01;95.68945;944.6278;;;;
2022/10/05 01:15:32;;;;;;;2.6;1.6;;;;;;;8.19;94.74121;944.5991;;;;
2022/10/05 01:17:58;;;;;;;4.1;2.7;;;;;;;8.22;94.66602;944.5873;;;;
2022/10/05 01:20:23;;;;;;;5.2;2.4;;;;;;;8.16;94.49512;944.5567;;;;
2022/10/05 01:22:48;;;;;;;5.1;2.7;;;;;;;8.04;94.19727;944.5614;;;;
2022/10/05 01:25:15;;;;;;;7.2;3.7;;;;;;;7.94;94.80859;944.5438;;;;
2022/10/05 01:27:40;;;;;;;4.7;2.9;;;;;;;7.89;95.70703;944.524;;;;
2022/10/05 01:30:06;;;;;;;6.9;3.5;;;;;;;7.88;96.44434;944.5413;;;;
2022/10/05 01:32:36;;;;;;;7;3.1;;;;;;;7.77;96.44043;944.5488;;;;
2022/10/05 01:35:02;;;;;;;3.6;2.2;;;;;;;7.86;96.79004;944.5707;;;;
2022/10/05 01:37:33;;;;;;;4.5;2.4;;;;;;;7.94;96.40918;944.5692;;;;
2022/10/05 01:39:58;;;;;;;3.2;2.1;;;;;;;8.1;95.30078;944.5511;;;;
2022/10/05 01:42:23;;;;;;;3.4;2.1;;;;;;;8.12;95.34863;944.4564;;;;
2022/10/05 01:44:49;;;;;;;3.8;1.8;;;;;;;7.97;96.17871;944.5193;;;;
2022/10/05 01:47:14;;;;;;;1.6;1.4;;;;;;;7.9;96.09473;944.5744;;;;
2022/10/05 01:49:39;;;;;;;2.6;1.6;;;;;;;7.79;96.14941;944.5542;;;;
2022/10/05 01:52:04;;;;;;;7.2;4.3;;;;;;;7.74;96.39844;944.5637;;;;
2022/10/05 01:54:31;;;;;;;3.4;2.3;;;;;;;7.71;96.7666;944.535;;;;
2022/10/05 01:56:56;;;;;;;3.4;2;;;;;;;7.81;96.38086;944.5051;;;;
2022/10/05 01:59:21;;;;;;;3.4;1.9;;;;;;;7.9;95.8125;944.5372;;;;
2022/10/05 02:01:50;;;;;;;2.1;1.3;;;;;;;7.84;95.78516;944.563;;;;
2022/10/05 02:04:28;;;;;;;1.6;1.2;;;;;;;7.78;96.14746;944.5223;;;;
2022/10/05 02:06:53;;;;;;;1.7;1.4;;;;;;;7.81;95.54102;944.4719;;;;
2022/10/05 02:09:18;;;;;;;2.5;1.5;;;;;;;7.84;95.56055;944.437;;;;
2022/10/05 02:11:43;;;;;;;3.4;1.6;;;;;;;7.9;95.0166;944.4506;;;;
2022/10/05 02:14:08;;;;;;;2.5;1.4;;;;;;;7.84;94.7207;944.3879;;;;
2022/10/05 02:16:33;;;;;;;2.3;1.5;;;;;;;7.9;94.8125;944.4038;;;;
2022/10/05 02:18:58;;;;;;;2.1;1.4;;;;;;;7.98;94.00195;944.3022;;;;
2022/10/05 02:21:23;;;;;;;2.4;1.5;;;;;;;8;93.61035;944.3362;;;;
2022/10/05 02:23:48;;;;;;;3.1;1.9;;;;;;;7.86;94.38477;944.39;;;;
2022/10/05 02:26:13;;;;;;;2.4;1.5;;;;;;;7.8;94.79199;944.3683;;;;
2022/10/05 02:28:42;;;;;;;2.1;1.6;;;;;;;7.74;95.02734;944.3744;;;;
2022/10/05 02:31:07;;;;;;;2.4;1.6;;;;;;;7.74;95.17578;944.3166;;;;
2022/10/05 02:33:32;;;;;;;1.9;1.5;;;;;;;7.71;95.30371;944.2427;;;;
2022/10/05 02:35:58;;;;;;;2.6;1.8;;;;;;;7.7;95.4375;944.2636;;;;
2022/10/05 02:38:23;;;;;;;1.8;1.5;;;;;;;7.7;95.43945;944.2266;;;;
2022/10/05 02:40:49;;;;;;;2.8;2;;;;;;;7.68;94.83203;944.2687;;;;
2022/10/05 02:43:16;;;;;;;2.2;1.4;;;;;;;7.33;96.34082;944.3271;;;;
2022/10/05 02:45:44;;;;;;;3.2;1.5;;;;;;;7.26;97.3125;944.2974;;;;
2022/10/05 02:50:35;;;;;;;1.7;1.3;;;;;;;7.4;96.87891;944.2202;;;;
2022/10/05 02:53:00;;;;;;;3.7;1.6;;;;;;;7.57;96.31445;944.1953;;;;
2022/10/05 02:55:25;;;;;;;2.9;1.1;;;;;;;7.78;94.94531;944.1908;;;;
2022/10/05 02:57:50;;;;;;;2.2;1.1;;;;;;;7.96;92.82813;944.2003;;;;
2022/10/05 03:00:15;;;;;;;1.8;1;;;;;;;7.96;92.93066;944.1742;;;;
2022/10/05 03:02:40;;;;;;;2.5;1.4;;;;;;;7.85;93.22656;944.1893;;;;
2022/10/05 03:05:05;;;;;;;1.6;1.3;;;;;;;7.71;93.6582;944.1895;;;;
2022/10/05 03:07:35;;;;;;;1.5;1.2;;;;;;;7.77;93.52539;944.1246;;;;
2022/10/05 03:10:00;;;;;;;2.9;1.6;;;;;;;7.7;93.37305;944.224;;;;
2022/10/05 03:12:25;;;;;;;1.9;1.3;;;;;;;7.53;94.23145;944.1893;;;;
2022/10/05 03:14:50;;;;;;;2.6;1.3;;;;;;;7.56;94.23926;944.127;;;;
2022/10/05 03:17:17;;;;;;;1.6;1.3;;;;;;;7.49;94.75684;944.0305;;;;
2022/10/05 03:19:42;;;;;;;2.2;1.3;;;;;;;7.4;94.97461;943.9497;;;;
2022/10/05 03:23:48;;;;;;;1.2;1.1;;;;;;;7.27;95.80762;944.0133;;;;
2022/10/05 03:25:57;;;;;;;4.3;1.8;;;;;;;7.24;96.18457;943.9703;;;;
2022/10/05 03:28:26;;;;;;;4.6;2;;;;;;;7.2;96.69629;943.9703;;;;
2022/10/05 03:30:51;;;;;;;5.8;2.3;;;;;;;7.24;96.91211;943.9277;;;;
2022/10/05 03:33:16;;;;;;;4.9;2.3;;;;;;;7.32;96.84961;943.9894;;;;
2022/10/05 03:35:41;;;;;;;8.8;3.5;;;;;;;7.47;95.55762;944.038;;;;
2022/10/05 03:38:06;;;;;;;8.4;3.8;;;;;;;7.47;95.44434;944.0435;;;;
2022/10/05 03:40:31;;;;;;;6.6;3.2;;;;;;;7.43;95.1416;944.0424;;;;
2022/10/05 03:42:57;;;;;;;4.4;2.6;;;;;;;7.45;94.77148;944.0641;;;;
2022/10/05 03:45:42;;;;;;;2;1.8;;;;;;;7.51;94.0918;944.074;;;;
2022/10/05 03:48:07;;;;;;;2.7;1.7;;;;;;;7.4;94.11328;944.1536;;;;
2022/10/05 03:50:32;;;;;;;3.9;1.7;;;;;;;7.28;94.71973;944.1592;;;;
2022/10/05 03:53:00;;;;;;;1.7;1.6;;;;;;;7.25;95.16699;944.1575;;;;
2022/10/05 03:55:25;;;;;;;4.6;1.8;;;;;;;7.31;95.16992;944.0842;;;;
2022/10/05 03:57:50;;;;;;;4;2.2;;;;;;;7.28;94.65234;944.1797;;;;
2022/10/05 04:02:31;;;;;;;3.9;2.4;;;;;;;7.15;95.74609;944.2341;;;;
2022/10/05 04:04:56;;;;;;;3.6;2.5;;;;;;;7.19;95.5293;944.1783;;;;
2022/10/05 04:10:58;;;;;;;4.4;2.8;;;;;;;7.1;95.67871;944.2817;;;;
2022/10/05 04:13:23;;;;;;;3.2;2.3;;;;;;;7.11;95.46582;944.2463;;;;
2022/10/05 04:15:48;;;;;;;3.7;2.4;;;;;;;6.97;95.80957;944.2654;;;;
2022/10/05 04:18:13;;;;;;;3.2;2.1;;;;;;;7.03;96.02539;944.2999;;;;
2022/10/05 04:20:38;;;;;;;4.7;2.5;;;;;;;6.91;96.75781;944.3164;;;;
2022/10/05 04:23:03;;;;;;;2.4;1.7;;;;;;;6.95;97.20703;944.2978;;;;
2022/10/05 04:25:31;;;;;;;2.5;1.8;;;;;;;7.04;97.02344;944.3445;;;;
2022/10/05 04:27:56;;;;;;;1.9;1.6;;;;;;;7.17;96.38574;944.3013;;;;
2022/10/05 04:30:22;;;;;;;3.8;1.6;;;;;;;7.17;95.8877;944.2958;;;;
2022/10/05 04:32:46;;;;;;;3;1.5;;;;;;;7.17;95.72949;944.3092;;;;
2022/10/05 04:37:37;;;;;;;5.2;3;;;;;;;7.12;95.09375;944.3038;;;;
2022/10/05 04:40:02;;;;;;;4.6;2.5;;;;;;;7.06;95.21777;944.2932;;;;
2022/10/05 04:42:27;;;;;;;4.2;3.1;;;;;;;6.83;95.6748;944.3195;;;;
2022/10/05 04:44:53;;;;;;;3;2;;;;;;;6.58;97.57813;944.3064;;;;
2022/10/05 04:48:28;;;;;;;2.2;1.6;;;;;;;6.51;98.7041;944.2725;;;;
2022/10/05 04:50:53;;;;;;;2.4;2;;;;;;;6.65;98.46387;944.305;;;;
2022/10/05 04:53:19;;;;;;;3.1;2.3;;;;;;;6.68;97.97363;944.3157;;;;
2022/10/05 04:59:31;;;;;;;2.5;2;;;;;;;6.64;97.80273;944.2769;;;;
2022/10/05 05:02:05;;;;;;;2.7;1.9;;;;;;;6.5;98.4873;944.2285;;;;
2022/10/05 05:04:31;;;;;;;2.1;1.7;;;;;;;6.53;98.3916;944.2683;;;;
2022/10/05 05:08:14;;;;;;;2.1;1.5;;;;;;;6.62;98.25391;944.278;;;;
2022/10/05 05:10:40;;;;;;;1.7;1.6;;;;;;;6.63;98.58398;944.2545;;;;
2022/10/05 05:13:05;;;;;;;8.4;3.6;;;;;;;6.67;98.59473;944.1935;;;;
2022/10/05 05:15:30;;;;;;;8.3;5.3;;;;;;;6.73;98.44824;944.2736;;;;
2022/10/05 05:17:59;;;;;;;6.8;3.5;;;;;;;6.82;98.24219;944.2557;;;;
2022/10/05 05:20:27;;;;;;;4;2.9;;;;;;;6.82;98.08398;944.3247;;;;
2022/10/05 05:22:52;;;;;;;3.7;1.5;;;;;;;6.93;97.54492;944.2119;;;;
2022/10/05 05:25:17;;;;;;;2.7;2;;;;;;;6.98;96.64941;944.3614;;;;
2022/10/05 05:27:43;;;;;;;4.4;2.1;;;;;;;6.94;96.42383;944.2905;;;;
2022/10/05 05:30:08;;;;;;;3.1;2.2;;;;;;;6.97;96.04492;944.3073;;;;
2022/10/05 05:32:33;;;;;;;3.4;1.8;;;;;;;7.07;96.12402;944.3542;;;;
2022/10/05 05:34:59;;;;;;;4.9;1.8;;;;;;;7.02;95.52441;944.3067;;;;
2022/10/05 05:37:24;;;;;;;5.4;2;;;;;;;6.98;95.34473;944.3479;;;;
2022/10/05 05:39:52;;;;;;;4.4;2.1;;;;;;;6.95;97.00391;944.4111;;;;
2022/10/05 05:42:22;;;;;;;4.5;2;;;;;;;7.13;96.19434;944.4061;;;;
2022/10/05 05:44:47;;;;;;;5.4;2.8;;;;;;;7.17;96.14844;944.4264;;;;
2022/10/05 05:50:43;;;;;;;4.9;2;;;;;;;7.26;94.00391;944.4336;;;;
2022/10/05 05:53:08;;;;;;;4.6;2.3;;;;;;;7.27;93.66602;944.4711;;;;
2022/10/05 05:55:33;;;;;;;3.8;2.2;;;;;;;7.41;93.87695;944.5385;;;;
2022/10/05 05:57:58;;;;;;;3.3;2.2;;;;;;;7.73;93.77832;944.5066;;;;
2022/10/05 06:00:23;;;;;;;6.1;2.1;;;;;;;8.33;93.41992;944.5229;;;;
2022/10/05 06:02:52;;;;;;;7.8;1.9;;;;;;;9.1;88.7627;944.4996;;;;
2022/10/05 06:05:20;;;;;;;4.7;1.9;;;;;;;9.81;85.3291;944.5444;;;;
2022/10/05 06:09:14;;;;;;;3.7;1.6;;;;;;;10.28;79.77344;944.5761;;;;
2022/10/05 06:11:44;;;;;;;4.9;3;;;;;;;10.36;78.48535;944.5936;;;;
2022/10/05 06:14:09;;;;;;;8.8;5.6;;;;;;;10.32;78.45801;944.6461;;;;
2022/10/05 06:16:37;;;;;;;10.6;6.3;;;;;;;10.79;78.81738;944.5731;;;;
2022/10/05 06:19:02;;;;;;;11.4;6.3;;;;;;;11.19;74.85156;944.5328;;;;
2022/10/05 06:21:31;;;;;;;17.7;9.1;;;;;;;11.19;74.91016;944.5369;;;;
2022/10/05 06:23:59;;;;;;;21.2;11.3;;;;;;;11.04;75.56934;944.5948;;;;
2022/10/05 06:26:24;;;;;;;17.9;9;;;;;;;11.05;75.58398;944.5569;;;;
2022/10/05 06:28:49;;;;;;;16.1;9;;;;;;;11.08;75.85059;944.5502;;;;
2022/10/05 06:31:14;;;;;;;11.3;6.5;;;;;;;11.05;75.51367;944.6006;;;;
2022/10/05 06:33:39;;;;;;;11.8;7.3;;;;;;;10.84;77.19141;944.6308;;;;
2022/10/05 06:36:11;;;;;;;7.4;4.1;;;;;;;10.75;77.45996;944.565;;;;
2022/10/05 06:38:36;;;;;;;6.3;3.9;;;;;;;10.8;78.11035;944.6339;;;;
2022/10/05 06:41:08;;;;;;;8.5;3.4;;;;;;;10.89;77.94238;944.5934;;;;
2022/10/05 06:43:33;;;;;;;3.2;2;;;;;;;10.86;77.41211;944.5036;;;;
2022/10/05 06:45:58;;;;;;;1.5;1.1;;;;;;;11.05;75.58398;944.5114;;;;
2022/10/05 06:48:23;;;;;;;4.1;1.5;;;;;;;11.2;73.49219;944.462;;;;
2022/10/05 06:51:17;;;;;;;2.3;1.3;;;;;;;11.66;70.5498;944.4656;;;;
2022/10/05 06:53:43;;;;;;;7.5;1.9;;;;;;;11.76;71.8125;944.5172;;;;
2022/10/05 06:56:10;;;;;;;6;3.7;;;;;;;11.88;74.27344;944.4176;;;;
2022/10/05 06:58:36;;;;;;;6.9;4;;;;;;;11.51;74.67871;944.4446;;;;
2022/10/05 07:01:04;;;;;;;9.5;3.8;;;;;;;11.65;75.74512;944.5014;;;;
2022/10/05 07:03:44;;;;;;;5;3.1;;;;;;;11.74;74.47852;944.4412;;;;
2022/10/05 07:06:09;;;;;;;5.4;3.3;;;;;;;11.96;73.93164;944.5248;;;;
2022/10/05 07:08:34;;;;;;;4.7;2.3;;;;;;;11.95;74.22852;944.527;;;;
2022/10/05 07:11:02;;;;;;;3.2;2.2;;;;;;;11.79;74.4541;944.5364;;;;
2022/10/05 07:13:29;;;;;;;2.7;2;;;;;;;11.82;75.59082;944.5419;;;;
2022/10/05 07:15:58;;;;;;;6.2;3.3;;;;;;;12.2;74.04199;944.5587;;;;
2022/10/05 07:18:23;;;;;;;7.3;3.3;;;;;;;12.44;72.21484;944.5033;;;;
2022/10/05 07:20:49;;;;;;;9.1;3.9;;;;;;;12.55;72.19629;944.5589;;;;
2022/10/05 07:23:14;;;;;;;6.1;3.1;;;;;;;12.86;72.15625;944.5381;;;;
2022/10/05 07:25:39;;;;;;;5.1;2.4;;;;;;;13.3;70.43848;944.5538;;;;
2022/10/05 07:28:04;;;;;;;3.5;1.8;;;;;;;13.66;69.09375;944.4871;;;;
2022/10/05 07:30:29;;;;;;;3.5;1.4;;;;;;;13.99;67.9248;944.4998;;;;
2022/10/05 07:32:55;;;;;;;5.3;2;;;;;;;14.23;67.36328;944.4698;;;;
2022/10/05 07:37:57;;;;;;;4.8;1.8;;;;;;;14.71;65.7998;944.4833;;;;
2022/10/05 07:40:22;;;;;;;1.3;1.1;;;;;;;14.94;64.94727;944.4586;;;;
2022/10/05 07:42:55;;;;;;;3;1.4;;;;;;;15.35;64.07227;944.4583;;;;
2022/10/05 07:45:19;;;;;;;1.8;1;;;;;;;15.62;62.86621;944.5003;;;;
2022/10/05 07:47:44;;;;;;;2.6;1.1;;;;;;;15.95;61.57129;944.4619;;;;
2022/10/05 07:50:09;;;;;;;3;1.1;;;;;;;16.11;61.23633;944.4659;;;;
2022/10/05 07:52:34;;;;;;;1.3;1;;;;;;;16.49;57.48047;944.3747;;;;
2022/10/05 07:54:59;;;;;;;3.6;1.1;;;;;;;16.79;58.55176;944.4464;;;;
2022/10/05 07:57:24;;;;;;;3.1;0.8;;;;;;;16.98;57.56836;944.4216;;;;
2022/10/05 08:03:41;;;;;;;3.7;1;;;;;;;17.57;54.32617;944.442;;;;
2022/10/05 08:06:06;;;;;;;1.4;0.5;;;;;;;17.09;53.83887;944.4092;;;;
2022/10/05 08:08:31;;;;;;;3.7;0.9;;;;;;;17.63;53.39453;944.425;;;;
2022/10/05 08:10:56;;;;;;;3.2;1.1;;;;;;;17.89;52.26367;944.3864;;;;
2022/10/05 08:13:26;;;;;;;0.9;0.8;;;;;;;18.08;51.6123;944.376;;;;
2022/10/05 08:15:59;;;;;;;2.2;0.5;;;;;;;18.18;49.73047;944.3339;;;;
2022/10/05 08:18:23;;;;;;;1.8;0.6;;;;;;;19.2;48.44824;944.2749;;;;
2022/10/05 08:20:49;;;;;;;2.3;0.5;;;;;;;19.07;47.21191;944.2347;;;;
2022/10/05 08:23:14;;;;;;;0.9;0.5;;;;;;;19.68;45.80859;944.2502;;;;
2022/10/05 08:25:39;;;;;;;0.6;0.6;;;;;;;19.8;43.71094;944.2587;;;;
2022/10/05 08:28:04;;;;;;;2.3;0.6;;;;;;;20.33;42.4082;944.1841;;;;
2022/10/05 08:30:29;;;;;;;0.4;0.4;;;;;;;20.67;39.58984;944.1339;;;;
2022/10/05 08:32:55;;;;;;;1.5;0.6;;;;;;;21.6;40.36328;944.2188;;;;
2022/10/05 08:35:20;;;;;;;1.2;0.5;;;;;;;23.03;37.82715;944.1724;;;;
2022/10/05 08:37:45;;;;;;;0.9;0.4;;;;;;;21.88;38.66602;944.1777;;;;
2022/10/05 08:40:09;;;;;;;0.4;0.4;;;;;;;22.33;37.91895;944.1792;;;;
2022/10/05 08:43:32;;;;;;;1.6;0.5;;;;;;;21.58;38.34766;944.1658;;;;
2022/10/05 08:45:57;;;;;;;0.8;0.8;;;;;;;22.29;37.2832;944.2062;;;;
2022/10/05 08:48:25;;;;;;;1;0.6;;;;;;;22.22;37.15918;944.1599;;;;
2022/10/05 08:50:53;;;;;;;1.1;0.6;;;;;;;23.73;35.54492;944.1766;;;;
2022/10/05 08:53:22;;;;;;;2.7;0.7;;;;;;;24.19;36.46484;944.0848;;;;
2022/10/05 08:55:52;;;;;;;2;1;;;;;;;24.67;34.55859;944.123;;;;
2022/10/05 08:58:20;;;;;;;0.6;0.5;;;;;;;22.02;36.4043;944.1847;;;;
2022/10/05 09:00:46;;;;;;;0.9;0.4;;;;;;;22.76;37.90918;944.1347;;;;
2022/10/05 09:03:11;;;;;;;0.7;0.4;;;;;;;22.55;36.13184;944.0736;;;;
2022/10/05 09:05:37;;;;;;;1.3;0.6;;;;;;;21.92;36.23242;944.1158;;;;
2022/10/05 09:08:35;;;;;;;1.7;0.5;;;;;;;21.92;38.63477;944.0883;;;;
2022/10/05 09:11:17;;;;;;;1.8;0.5;;;;;;;22.49;38.31934;944.1526;;;;
2022/10/05 09:13:42;;;;;;;1.1;0.5;;;;;;;22.19;39.11523;944.1492;;;;
2022/10/05 09:16:07;;;;;;;0.9;0.7;;;;;;;23.05;37.13477;944.1177;;;;
2022/10/05 09:18:38;;;;;;;0.8;0.6;;;;;;;23.53;35.35254;944.1181;;;;
2022/10/05 09:21:03;;;;;;;0.9;0.7;;;;;;;23.04;36.78223;944.1348;;;;
2022/10/05 09:23:28;;;;;;;1;0.6;;;;;;;22.28;37.45703;944.2033;;;;
2022/10/05 09:25:53;;;;;;;1.9;0.6;;;;;;;22.82;34.79102;944.169;;;;
2022/10/05 09:28:18;;;;;;;2.1;0.9;;;;;;;22.71;36.1084;944.1736;;;;
2022/10/05 09:30:43;;;;;;;2.5;0.6;;;;;;;22.4;37.1748;944.1579;;;;
2022/10/05 09:33:09;;;;;;;0.6;0.6;;;;;;;22.31;37.15527;944.1545;;;;
2022/10/05 09:35:34;;;;;;;0.8;0.8;;;;;;;22.45;36.99121;944.1128;;;;
2022/10/05 09:38:03;;;;;;;1.5;0.7;;;;;;;22.53;40.12012;944.1433;;;;
2022/10/05 09:40:28;;;;;;;1.4;0.6;;;;;;;22.8;38.01855;944.0923;;;;
2022/10/05 09:43:26;;;;;;;0.8;0.5;;;;;;;22.76;38.40234;944.0737;;;;
2022/10/05 09:45:53;;;;;;;2.1;0.6;;;;;;;22.86;37.50684;944.0416;;;;
2022/10/05 09:48:17;;;;;;;1.6;0.5;;;;;;;22.83;37.08203;944.052;;;;
2022/10/05 09:50:44;;;;;;;2.8;0.9;;;;;;;22.76;36.72363;944.0121;;;;
2022/10/05 09:53:09;;;;;;;1.3;0.4;;;;;;;22.24;37.99414;944.0201;;;;
2022/10/05 09:55:38;;;;;;;0.5;0.4;;;;;;;22.47;36.98145;943.9557;;;;
2022/10/05 09:58:01;;;;;;;0.8;0.5;;;;;;;22.34;38.67188;943.9947;;;;
2022/10/05 10:00:34;;;;;;;1.3;0.7;;;;;;;22.61;39.7041;943.9526;;;;
2022/10/05 10:03:04;;;;;;;1;0.8;;;;;;;22.58;37.97656;943.956;;;;
2022/10/05 10:05:30;;;;;;;1;0.7;;;;;;;22.59;39.11523;943.9402;;;;
2022/10/05 10:07:54;;;;;;;1;0.7;;;;;;;22.64;38.79102;943.9442;;;;
2022/10/05 10:10:19;;;;;;;1.6;0.7;;;;;;;22.62;38.83594;943.9411;;;;
2022/10/05 10:12:44;;;;;;;2;1.5;;;;;;;22.98;37.97461;943.8699;;;;
2022/10/05 10:15:14;;;;;;;0.7;0.5;;;;;;;22.87;34.37207;943.8691;;;;
2022/10/05 10:17:40;;;;;;;2;0.7;;;;;;;22.98;34.09863;943.8293;;;;
2022/10/05 10:20:05;;;;;;;1.9;0.6;;;;;;;23.31;32.98438;943.8458;;;;
2022/10/05 10:22:32;;;;;;;0.7;0.5;;;;;;;23.53;34.68262;943.805;;;;
2022/10/05 10:24:57;;;;;;;0.7;0.4;;;;;;;23.69;34.09375;943.8137;;;;
2022/10/05 10:27:22;;;;;;;0.3;0.3;;;;;;;23.79;33.33691;943.8128;;;;
2022/10/05 10:29:47;;;;;;;0.8;0.4;;;;;;;23.67;33.31641;943.851;;;;
2022/10/05 10:32:14;;;;;;;0.6;0.4;;;;;;;23.46;33.66602;943.8795;;;;
2022/10/05 10:34:39;;;;;;;0.5;0.5;;;;;;;23.51;34.56348;943.8699;;;;
2022/10/05 10:37:09;;;;;;;1.2;0.4;;;;;;;23.8;34.86816;943.858;;;;
2022/10/05 10:39:33;;;;;;;0.4;0.3;;;;;;;23.82;34.09277;943.8287;;;;
2022/10/05 10:41:58;;;;;;;0.4;0.4;;;;;;;23.9;33.38086;943.8695;;;;
2022/10/05 10:44:23;;;;;;;0.6;0.6;;;;;;;24.42;32.83008;943.8455;;;;
2022/10/05 10:46:52;;;;;;;0.3;0.2;;;;;;;24.05;32.61426;943.8447;;;;
2022/10/05 10:49:17;;;;;;;0.4;0.3;;;;;;;24.65;32.56445;943.8678;;;;
2022/10/05 10:51:42;;;;;;;1.7;0.5;;;;;;;24.92;29.8584;943.8674;;;;
2022/10/05 10:54:07;;;;;;;1.3;0.4;;;;;;;24.43;33.43262;943.8005;;;;
2022/10/05 10:56:32;;;;;;;1.2;0.5;;;;;;;24.21;36.37207;943.8384;;;;
2022/10/05 10:58:57;;;;;;;2.3;0.5;;;;;;;24.2;39.10449;943.8719;;;;
2022/10/05 11:01:23;;;;;;;0.6;0.4;;;;;;;24.43;35.4707;943.7989;;;;
2022/10/05 11:03:48;;;;;;;1;0.6;;;;;;;24.8;34.93457;943.7755;;;;
2022/10/05 11:06:17;;;;;;;0.6;0.6;;;;;;;25.17;35.6123;943.7745;;;;
2022/10/05 11:08:41;;;;;;;0.4;0.4;;;;;;;25.53;34.94434;943.7576;;;;
2022/10/05 11:11:06;;;;;;;1.4;0.4;;;;;;;25.97;33.39355;943.7505;;;;
2022/10/05 11:13:33;;;;;;;0.4;0.4;;;;;;;26.22;32.15918;943.7401;;;;
2022/10/05 11:16:01;;;;;;;0.4;0.4;;;;;;;26.63;32.00977;943.7072;;;;
2022/10/05 11:18:26;;;;;;;0.9;0.5;;;;;;;26.98;32.14258;943.5969;;;;
2022/10/05 11:20:51;;;;;;;0.4;0.4;;;;;;;27.89;30.17578;943.5821;;;;
2022/10/05 11:23:31;;;;;;;0.5;0.4;;;;;;;28.44;29.08301;943.5653;;;;
2022/10/05 11:25:56;;;;;;;2.2;0.4;;;;;;;28.94;29.00879;943.4869;;;;
2022/10/05 11:28:21;;;;;;;0.4;0.3;;;;;;;29.27;27.1123;943.4961;;;;
2022/10/05 11:30:47;;;;;;;0.4;0.4;;;;;;;29.86;27.2793;943.4959;;;;
2022/10/05 11:33:12;;;;;;;0.5;0.2;;;;;;;29.87;27.20703;943.5251;;;;
2022/10/05 11:35:37;;;;;;;0.4;0.4;;;;;;;30.4;25.51953;943.408;;;;
2022/10/05 11:38:02;;;;;;;0.4;0.3;;;;;;;30.6;25.53125;943.4497;;;;
2022/10/05 11:40:27;;;;;;;0.9;0.4;;;;;;;31.05;24.64746;943.3924;;;;
2022/10/05 11:42:52;;;;;;;1.3;0.4;;;;;;;30.54;26.99707;943.4086;;;;
2022/10/05 11:45:21;;;;;;;0.4;0.4;;;;;;;29.58;26.21289;943.348;;;;
2022/10/05 11:47:46;;;;;;;0.3;0.3;;;;;;;29.28;27.82715;943.2667;;;;
2022/10/05 11:50:14;;;;;;;0.6;0.6;;;;;;;29.44;25.88281;943.2687;;;;
2022/10/05 11:52:43;;;;;;;0.3;0.3;;;;;;;30.34;24.05957;943.2125;;;;
2022/10/05 11:55:14;;;;;;;0.5;0.4;;;;;;;30.34;25.16992;943.2078;;;;
2022/10/05 11:57:40;;;;;;;1.1;0.3;;;;;;;30.21;24.23242;943.2082;;;;
2022/10/05 12:00:06;;;;;;;0.5;0.4;;;;;;;29.93;24.53906;943.2145;;;;
2022/10/05 12:02:33;;;;;;;0.6;0.4;;;;;;;29.58;27.72656;943.1544;;;;
2022/10/05 12:04:59;;;;;;;0.5;0.4;;;;;;;30.21;25.03125;943.1395;;;;
2022/10/05 12:07:24;;;;;;;0.9;0.4;;;;;;;30.99;24.02246;943.0399;;;;
2022/10/05 12:10:16;;;;;;;0.2;0.2;;;;;;;30.29;22.86328;943.1175;;;;
2022/10/05 12:12:15;;;;;;;0.3;0.3;;;;;;;31.44;22.98145;943.0985;;;;
2022/10/05 12:14:40;;;;;;;0.4;0.4;;;;;;;31.73;21.88184;943.0388;;;;
2022/10/05 12:17:05;;;;;;;0.4;0.4;;;;;;;31.7;22.0127;943.0158;;;;
2022/10/05 12:19:31;;;;;;;1;0.4;;;;;;;32.3;21.39453;942.9461;;;;
2022/10/05 12:21:58;;;;;;;0.8;0.3;;;;;;;31.74;21.52344;942.9231;;;;
2022/10/05 12:24:21;;;;;;;0.3;0.3;;;;;;;32.2;21.0293;942.9392;;;;
2022/10/05 12:26:49;;;;;;;0.2;0.2;;;;;;;33.98;19.93262;942.9835;;;;
2022/10/05 12:29:14;;;;;;;1.1;0.3;;;;;;;35.23;19.0459;942.9302;;;;
2022/10/05 12:31:39;;;;;;;0.4;0.3;;;;;;;35.68;18.84668;942.8934;;;;
2022/10/05 12:34:05;;;;;;;0.4;0.4;;;;;;;34.8;20.08887;942.9338;;;;
2022/10/05 12:36:33;;;;;;;0.3;0.3;;;;;;;36.81;17.52441;942.8022;;;;
2022/10/05 12:39:03;;;;;;;2;0.5;;;;;;;37.6;17.62793;942.7922;;;;
2022/10/05 12:41:26;;;;;;;0.5;0.5;;;;;;;36.13;20.60645;942.772;;;;
2022/10/05 12:43:55;;;;;;;0.7;0.4;;;;;;;38.09;17.76758;942.7862;;;;
2022/10/05 12:46:22;;;;;;;0.5;0.5;;;;;;;36.62;20.0957;942.6619;;;;
2022/10/05 12:48:48;;;;;;;0.4;0.4;;;;;;;37.7;18.63867;942.7112;;;;
2022/10/05 12:51:12;;;;;;;0.4;0.4;;;;;;;40.01;16.29297;942.6984;;;;
2022/10/05 12:53:37;;;;;;;0.4;0.4;;;;;;;39.79;16.45605;942.6802;;;;
2022/10/05 12:56:02;;;;;;;0.4;0.4;;;;;;;39.5;16.44629;942.6481;;;;
2022/10/05 12:58:29;;;;;;;0.7;0.4;;;;;;;40.5;15.50488;942.6301;;;;
2022/10/05 13:00:56;;;;;;;0.3;0.3;;;;;;;40.47;15.47949;942.5955;;;;
2022/10/05 13:03:19;;;;;;;1.3;0.4;;;;;;;38.63;17.43652;942.6301;;;;
2022/10/05 13:05:45;;;;;;;0.6;0.3;;;;;;;38.94;17.14355;942.6272;;;;
2022/10/05 13:08:11;;;;;;;0.4;0.4;;;;;;;38.13;17.36816;942.545;;;;
2022/10/05 13:10:35;;;;;;;0.5;0.5;;;;;;;35.92;19.59375;942.4984;;;;
2022/10/05 13:13:01;;;;;;;0.5;0.4;;;;;;;37.16;17.67188;942.5186;;;;
2022/10/05 13:15:26;;;;;;;0.4;0.4;;;;;;;38.37;17.25586;942.5472;;;;
2022/10/05 13:17:53;;;;;;;0.3;0.3;;;;;;;38.49;17.01758;942.5488;;;;
2022/10/05 13:20:19;;;;;;;0.4;0.4;;;;;;;39.14;16.76172;942.5592;;;;
2022/10/05 13:22:43;;;;;;;0.5;0.5;;;;;;;38.87;16.95801;942.5429;;;;
2022/10/05 13:25:11;;;;;;;2.2;0.5;;;;;;;39.05;17.14746;942.5917;;;;
2022/10/05 13:27:42;;;;;;;1.7;0.8;;;;;;;38.56;17.83496;942.5616;;;;
2022/10/05 13:30:10;;;;;;;0.6;0.6;;;;;;;37.95;18.55176;942.6277;;;;
2022/10/05 13:32:36;;;;;;;0.4;0.4;;;;;;;36.11;21.27051;942.4997;;;;
2022/10/05 13:35:01;;;;;;;1.3;0.4;;;;;;;37.53;19.48145;942.5737;;;;
2022/10/05 13:37:26;;;;;;;0.4;0.4;;;;;;;38.15;18.5957;942.551;;;;
2022/10/05 13:39:51;;;;;;;0.7;0.5;;;;;;;38.67;18.56836;942.5875;;;;
2022/10/05 13:42:21;;;;;;;3;0.5;;;;;;;37.99;18.61426;942.6096;;;;
2022/10/05 13:44:47;;;;;;;0.6;0.6;;;;;;;37.11;19.77832;942.5567;;;;
2022/10/05 13:47:15;;;;;;;0.6;0.6;;;;;;;37.73;19.59863;942.5265;;;;
2022/10/05 13:49:38;;;;;;;0.4;0.4;;;;;;;38.53;18.49023;942.536;;;;
2022/10/05 13:52:05;;;;;;;1;0.4;;;;;;;38.91;18.28613;942.5435;;;;
2022/10/05 13:54:30;;;;;;;1.3;0.5;;;;;;;39.4;18.01367;942.4944;;;;
2022/10/05 13:56:55;;;;;;;0.5;0.5;;;;;;;39.35;17.54883;942.5115;;;;
2022/10/05 13:59:23;;;;;;;0.3;0.3;;;;;;;38.29;18.43164;942.5488;;;;
2022/10/05 14:01:48;;;;;;;0.5;0.5;;;;;;;37.29;19.42285;942.4852;;;;
2022/10/05 14:04:19;;;;;;;0.7;0.4;;;;;;;36.41;20.20801;942.5229;;;;
2022/10/05 14:06:44;;;;;;;1.5;0.5;;;;;;;36.1;21.08887;942.475;;;;
2022/10/05 14:09:09;;;;;;;0.6;0.5;;;;;;;36.08;20.90723;942.5105;;;;
2022/10/05 14:11:35;;;;;;;0.6;0.6;;;;;;;36.87;20.79688;942.5031;;;;
2022/10/05 14:14:00;;;;;;;0.4;0.4;;;;;;;37.44;20.03516;942.5344;;;;
2022/10/05 14:16:25;;;;;;;1.1;0.7;;;;;;;38.11;19.6875;942.4792;;;;
2022/10/05 14:18:52;;;;;;;0.6;0.5;;;;;;;38.33;19.1748;942.5106;;;;
2022/10/05 14:21:21;;;;;;;0.5;0.5;;;;;;;38.46;18.8877;942.4667;;;;
2022/10/05 14:23:44;;;;;;;2.5;0.5;;;;;;;36.88;20.22852;942.441;;;;
2022/10/05 14:26:12;;;;;;;0.6;0.5;;;;;;;37;20.42773;942.4286;;;;
2022/10/05 14:28:38;;;;;;;1;0.4;;;;;;;37.2;20.03711;942.3798;;;;
2022/10/05 14:31:02;;;;;;;0.7;0.4;;;;;;;36.65;20.52148;942.4072;;;;
2022/10/05 14:33:31;;;;;;;0.4;0.4;;;;;;;36.46;20.66992;942.4302;;;;
2022/10/05 14:35:56;;;;;;;0.7;0.5;;;;;;;36.08;21.17285;942.3994;;;;
2022/10/05 14:38:28;;;;;;;1;0.8;;;;;;;35.86;21.64551;942.3764;;;;
2022/10/05 14:40:54;;;;;;;0.4;0.4;;;;;;;35.55;21.69141;942.3909;;;;
2022/10/05 14:43:19;;;;;;;1.5;0.5;;;;;;;34.65;22.86719;942.3741;;;;
2022/10/05 14:45:45;;;;;;;0.5;0.5;;;;;;;34.4;23.31152;942.3474;;;;
2022/10/05 14:48:16;;;;;;;1.2;0.4;;;;;;;32.98;24.9209;942.3523;;;;
2022/10/05 14:50:46;;;;;;;1;0.9;;;;;;;33.06;24.78125;942.2916;;;;
2022/10/05 14:53:15;;;;;;;2.3;0.5;;;;;;;33.08;24.99805;942.3588;;;;
2022/10/05 14:55:41;;;;;;;0.5;0.5;;;;;;;32.86;24.92578;942.3312;;;;
2022/10/05 14:58:06;;;;;;;0.5;0.5;;;;;;;32.14;26.14551;942.2748;;;;